»·PEaware :: WAT847 KABQ-KPHX

WAT847 :: KABQ-KPHX

FLIGHT INFORMATION

Flight Status: Arrived
Operator:
Walker Air Transport
More flights by this operator :: More flights under this callsign
Pilot: Charlton B. (28558)
Aircraft: BOEING 767-300
(B763)
More flights by this aircraft type
Origin: KABQ Albuquerque Intl Sunport
United States
Destination: KPHX Phoenix Sky Harbor Intl
United States
More flights between these airports :: More routes between these airports
Route: RDRNR3 ZUN EAGUL6
File this flight plan on PilotEdge
Remarks: RMK / SIMBRIEF
Altitude:
(Current/Filed)
34,000ft
Speed:
(Current/Filed)
447kts
Departed: 25-Jul-22 05:05 PM
Arrived: 25-Jul-22 05:55 PM
Distance/Time
Traveled:
285nm/0:50
Distance/Time
To Go:
Arrived

Flight Plot

Page will automatically refresh every two minutes.

Flight plan parsing failed; only flown route is shown


Map Options




Map Legend


Flown Route
Filed Route
Departure Airport
Arrival Airport
Navaid (VOR, NDB)
Fix

Horizontal Profiles

Position Reports

Time Latitude Longitude Heading Altitude Ground
Speed
25-Jul-22 16:34 35.046840 -106.616932 11 5316ft 0kts
25-Jul-22 16:35 35.046840 -106.616932 11 5316ft 0kts
25-Jul-22 16:36 35.046840 -106.616932 11 5316ft 0kts
25-Jul-22 16:37 35.046840 -106.616932 11 5316ft 0kts
25-Jul-22 16:38 35.046840 -106.616932 11 5316ft 0kts
25-Jul-22 16:39 35.046840 -106.616932 11 5316ft 0kts
25-Jul-22 16:40 35.046840 -106.616932 11 5316ft 0kts
25-Jul-22 16:41 35.046840 -106.616932 11 5316ft 0kts
25-Jul-22 16:42 35.046840 -106.616932 11 5316ft 0kts
25-Jul-22 16:42 35.046840 -106.616932 11 5316ft 0kts
25-Jul-22 16:44 35.046840 -106.616932 11 5316ft 0kts
25-Jul-22 16:45 35.046840 -106.616932 11 5316ft 0kts
25-Jul-22 16:46 35.046840 -106.616932 11 5316ft 0kts
25-Jul-22 16:47 35.046840 -106.616932 11 5316ft 0kts
25-Jul-22 16:47 35.046840 -106.616932 11 5316ft 0kts
25-Jul-22 16:48 35.046840 -106.616932 11 5316ft 0kts
25-Jul-22 16:50 35.046840 -106.616932 11 5316ft 0kts
25-Jul-22 16:51 35.046840 -106.616932 11 5316ft 0kts
25-Jul-22 16:52 35.046611 -106.616915 334 5317ft 2kts
25-Jul-22 16:52 35.046369 -106.616406 267 5317ft 2kts
25-Jul-22 16:53 35.046372 -106.616308 268 5317ft 0kts
25-Jul-22 16:54 35.046372 -106.616308 268 5317ft 0kts
25-Jul-22 16:55 35.046372 -106.616308 268 5317ft 0kts
25-Jul-22 16:57 35.046372 -106.616308 268 5317ft 0kts
25-Jul-22 16:57 35.046173 -106.616690 230 5318ft 10kts
25-Jul-22 16:58 35.045575 -106.621068 249 5307ft 10kts
25-Jul-22 16:59 35.045330 -106.621274 183 5306ft 0kts
25-Jul-22 17:00 35.045330 -106.621274 183 5306ft 0kts
25-Jul-22 17:01 35.045330 -106.621274 183 5306ft 0kts
25-Jul-22 17:02 35.045330 -106.621274 183 5306ft 0kts
25-Jul-22 17:03 35.044471 -106.620906 120 5308ft 5kts
25-Jul-22 17:04 35.044271 -106.608746 91 5323ft 137kts
25-Jul-22 17:05 35.045908 -106.535878 72 7196ft 295kts
25-Jul-22 17:06 35.115746 -106.479786 349 10141ft 293kts
25-Jul-22 17:07 35.167225 -106.562652 270 12051ft 355kts
25-Jul-22 17:08 35.121707 -106.671844 233 15243ft 372kts
25-Jul-22 17:09 35.096730 -106.794561 279 18472ft 382kts
25-Jul-22 17:10 35.105760 -106.928102 257 21670ft 399kts
25-Jul-22 17:11 35.078206 -107.064853 255 24698ft 416kts
25-Jul-22 17:12 35.049564 -107.206762 254 27518ft 433kts
25-Jul-22 17:13 35.034496 -107.358849 267 29709ft 463kts
25-Jul-22 17:14 35.025114 -107.519120 253 32879ft 459kts
25-Jul-22 17:15 34.961186 -107.654457 240 34213ft 455kts
25-Jul-22 17:16 34.939990 -107.808386 277 34220ft 461kts
25-Jul-22 17:17 34.962694 -107.962885 262 34242ft 457kts
25-Jul-22 17:18 34.956757 -108.121400 269 34226ft 458kts
25-Jul-22 17:19 34.958326 -108.280102 270 34228ft 458kts
25-Jul-22 17:20 34.960080 -108.438330 269 34225ft 459kts
25-Jul-22 17:21 34.961660 -108.597238 269 34219ft 458kts
25-Jul-22 17:22 34.963014 -108.755387 269 34217ft 458kts
25-Jul-22 17:23 34.964167 -108.913947 269 34216ft 458kts
25-Jul-22 17:24 34.965121 -109.072292 269 34217ft 456kts
25-Jul-22 17:25 34.938818 -109.224298 246 34219ft 453kts
25-Jul-22 17:26 34.887700 -109.367866 245 34253ft 454kts
25-Jul-22 17:27 34.835163 -109.511409 245 34260ft 455kts
25-Jul-22 17:28 34.782469 -109.654549 244 34217ft 455kts
25-Jul-22 17:29 34.729631 -109.797373 244 34200ft 455kts
25-Jul-22 17:30 34.676590 -109.940178 244 34199ft 454kts
25-Jul-22 17:31 34.623495 -110.082552 244 34200ft 455kts
25-Jul-22 17:32 34.570142 -110.224989 244 34203ft 454kts
25-Jul-22 17:33 34.518368 -110.362621 244 33865ft 446kts
25-Jul-22 17:34 34.466231 -110.500593 244 31955ft 444kts
25-Jul-22 17:35 34.414014 -110.638182 244 30016ft 434kts
25-Jul-22 17:36 34.363173 -110.770926 240 28006ft 416kts
25-Jul-22 17:37 34.289793 -110.878035 225 26234ft 402kts
25-Jul-22 17:38 34.213179 -110.977366 225 24517ft 391kts
25-Jul-22 17:39 34.138223 -111.073960 224 22868ft 381kts
25-Jul-22 17:40 34.065731 -111.167128 224 21205ft 363kts
25-Jul-22 17:41 33.996687 -111.255617 224 19697ft 351kts
25-Jul-22 17:42 33.928970 -111.342188 224 18220ft 343kts
25-Jul-22 17:43 33.859749 -111.421629 214 17217ft 324kts
25-Jul-22 17:44 33.784939 -111.486272 214 17095ft 325kts
25-Jul-22 17:45 33.709677 -111.550951 213 17037ft 325kts
25-Jul-22 17:46 33.639085 -111.611459 213 17006ft 279kts
25-Jul-22 17:47 33.573804 -111.665978 212 14963ft 316kts
25-Jul-22 17:48 33.508218 -111.721330 213 11330ft 253kts
25-Jul-22 17:49 33.459239 -111.773932 237 8037ft 232kts
25-Jul-22 17:50 33.457897 -111.853177 264 4006ft 205kts
25-Jul-22 17:51 33.451228 -111.915904 251 2807ft 162kts
25-Jul-22 17:52 33.442881 -111.963844 259 1759ft 128kts
25-Jul-22 17:53 33.440825 -112.011534 267 1131ft 149kts
25-Jul-22 17:54 33.440872 -112.025787 270 1120ft 9kts
25-Jul-22 17:55 33.438986 -112.025319 88 1120ft 13kts
25-Jul-22 17:56 33.438986 -112.025286 88 1120ft 13kts

Navigation Log

Ident Type
Flight plan parsing failed, navigation log unavailable